Swinoujscie, Poland
Current Conditions -  °F | °C
As of 3:20 PM on Thursday 30 Oct 2014 (Local Time) from EDAH Reporting Station
Broken Clouds Broken Clouds  
Wind Chill: 52°   Ceiling: 2000
Heat Index: 52°   Visibility: 6mi
Dew Point: 45°   Wind: 3mph
Humidity: 76%   Direction: NA
Pressure: 30.27"   Gusts: NA
Location:  53.91°N, 14.25°E
Report Text: EDAH 301320Z VRB03KT 9999 BKN020 11/07 Q1025
Loading
Personal Weather Stations






























Interactive Weather Map
Tropical Storm Tracking
New forecast layout! Learn more

10-Day Weather Forecast

Advertisements
Track Severe Weather on mobile